createdAt,value
2023-05-10T00:01:53.157Z,11.30
2023-05-10T00:04:21.134Z,9.60
2023-05-10T00:06:49.048Z,11.10
2023-05-10T00:09:17.010Z,11.00
2023-05-10T00:11:44.900Z,12.10
2023-05-10T00:14:12.972Z,9.40
2023-05-10T00:16:41.564Z,13.30
2023-05-10T00:19:09.762Z,9.50
2023-05-10T00:21:37.560Z,11.30
2023-05-10T00:24:05.816Z,10.60
2023-05-10T00:26:33.590Z,7.80
2023-05-10T00:29:01.457Z,9.90
2023-05-10T00:31:29.249Z,14.00
2023-05-10T00:33:57.224Z,11.10
2023-05-10T00:36:25.048Z,11.60
2023-05-10T00:38:52.900Z,9.70
2023-05-10T00:41:22.064Z,9.60
2023-05-10T00:43:49.926Z,10.10
2023-05-10T00:46:18.680Z,10.70
2023-05-10T00:48:46.830Z,8.90
2023-05-10T00:51:14.891Z,12.20
2023-05-10T00:53:42.847Z,12.10
2023-05-10T00:56:11.522Z,9.00
2023-05-10T00:58:40.723Z,10.50
2023-05-10T01:01:10.253Z,9.90
2023-05-10T01:03:38.805Z,10.80
2023-05-10T01:06:07.273Z,11.80
2023-05-10T01:08:35.096Z,14.20
2023-05-10T01:11:03.833Z,13.80
2023-05-10T01:13:40.530Z,14.60
2023-05-10T01:16:08.620Z,12.30
2023-05-10T01:18:40.675Z,17.80
2023-05-10T01:21:29.146Z,17.60
2023-05-10T01:24:30.388Z,18.30
2023-05-10T01:27:01.187Z,19.80
2023-05-10T01:30:14.706Z,19.10
2023-05-10T01:33:19.435Z,18.90
2023-05-10T01:36:03.254Z,18.90
2023-05-10T01:38:48.208Z,15.30
2023-05-10T01:41:38.951Z,16.60
2023-05-10T01:44:35.900Z,13.90
2023-05-10T01:47:17.023Z,16.50
2023-05-10T01:49:50.479Z,15.70
2023-05-10T01:52:21.306Z,14.90
2023-05-10T01:55:12.473Z,19.20
2023-05-10T01:57:43.985Z,18.90
2023-05-10T02:00:13.244Z,22.00
2023-05-10T02:02:45.050Z,17.10
2023-05-10T02:05:15.423Z,14.90
2023-05-10T02:07:43.594Z,16.20
2023-05-10T02:10:12.904Z,15.70
2023-05-10T02:12:44.984Z,15.10
2023-05-10T02:15:15.804Z,16.80
2023-05-10T02:17:43.711Z,12.20
2023-05-10T02:20:12.692Z,13.10
2023-05-10T02:22:41.507Z,11.00
2023-05-10T02:25:10.169Z,14.50
2023-05-10T02:27:38.182Z,11.20
2023-05-10T02:30:09.113Z,13.20
2023-05-10T02:32:37.751Z,17.30
2023-05-10T02:35:06.506Z,13.70
2023-05-10T02:37:35.675Z,14.50
2023-05-10T02:40:04.582Z,11.40
2023-05-10T02:42:36.351Z,12.50
2023-05-10T02:45:13.323Z,12.70
2023-05-10T02:47:41.329Z,13.20
2023-05-10T02:50:09.822Z,14.60
2023-05-10T02:52:43.823Z,13.50
2023-05-10T02:55:16.464Z,15.10
2023-05-10T02:57:58.869Z,11.80
2023-05-10T03:00:26.966Z,13.10
2023-05-10T03:02:54.903Z,11.90
2023-05-10T03:05:23.387Z,16.00
2023-05-10T03:07:52.434Z,13.80
2023-05-10T03:10:22.971Z,12.20
2023-05-10T03:13:36.305Z,14.10
2023-05-10T03:16:11.547Z,13.40
2023-05-10T03:18:45.916Z,14.60
2023-05-10T03:21:16.236Z,15.60
2023-05-10T03:24:09.330Z,16.50
2023-05-10T03:29:06.458Z,12.70
2023-05-10T03:31:34.614Z,14.10
2023-05-10T03:34:02.520Z,14.30
2023-05-10T03:36:30.257Z,14.10
2023-05-10T03:38:58.203Z,13.40
2023-05-10T03:41:26.507Z,12.50
2023-05-10T03:43:54.520Z,13.30
2023-05-10T03:46:22.378Z,11.10
2023-05-10T03:48:50.163Z,13.60
2023-05-10T03:51:17.843Z,13.40
2023-05-10T03:53:45.879Z,15.40
2023-05-10T03:56:13.981Z,13.70
2023-05-10T03:58:41.899Z,11.70
2023-05-10T04:01:09.744Z,11.60
2023-05-10T04:03:37.893Z,11.40
2023-05-10T04:06:06.374Z,15.30
2023-05-10T04:08:34.254Z,13.40
2023-05-10T04:11:13.233Z,10.40
2023-05-10T04:13:41.070Z,15.80
2023-05-10T04:16:08.899Z,13.60
2023-05-10T04:18:36.766Z,11.30
2023-05-10T04:21:04.709Z,11.20
2023-05-10T04:23:32.610Z,8.00
2023-05-10T04:26:02.206Z,10.30
2023-05-10T04:28:30.020Z,13.50
2023-05-10T04:31:09.182Z,16.50
2023-05-10T04:33:38.595Z,8.80
2023-05-10T04:36:07.053Z,12.90
2023-05-10T04:38:35.434Z,15.10
2023-05-10T04:41:11.023Z,9.30
2023-05-10T04:43:39.711Z,11.90
2023-05-10T04:46:10.558Z,12.80
2023-05-10T04:48:38.373Z,14.30
2023-05-10T04:51:07.509Z,23.00
2023-05-10T04:53:35.332Z,14.10
2023-05-10T04:56:03.380Z,13.20
2023-05-10T04:58:31.171Z,15.60
2023-05-10T05:01:10.446Z,15.10
2023-05-10T05:03:38.374Z,13.40
2023-05-10T05:06:06.592Z,12.60
2023-05-10T05:08:34.379Z,13.80
2023-05-10T05:11:02.455Z,11.00
2023-05-10T05:13:30.517Z,13.20
2023-05-10T05:15:58.393Z,11.40
2023-05-10T05:18:26.198Z,10.50
2023-05-10T05:20:53.980Z,9.80
2023-05-10T05:23:21.838Z,10.60
2023-05-10T05:25:49.592Z,10.90
2023-05-10T05:28:18.059Z,9.80
2023-05-10T05:30:45.887Z,13.40
2023-05-10T05:33:16.767Z,11.20
2023-05-10T05:35:51.809Z,10.50
2023-05-10T05:38:19.758Z,15.90
2023-05-10T05:40:47.536Z,10.60
2023-05-10T05:43:15.300Z,11.90
2023-05-10T05:45:43.140Z,11.00
2023-05-10T05:48:11.131Z,12.20
2023-05-10T05:50:39.053Z,11.50
2023-05-10T05:53:06.831Z,11.70
2023-05-10T05:55:35.203Z,10.90
2023-05-10T05:58:03.137Z,9.10
2023-05-10T06:00:30.946Z,16.20
2023-05-10T06:02:58.913Z,11.80
2023-05-10T06:05:26.716Z,14.60
2023-05-10T06:07:54.454Z,10.60
2023-05-10T06:10:23.717Z,10.20
2023-05-10T06:12:51.490Z,11.60
2023-05-10T06:15:19.378Z,18.00
2023-05-10T06:17:48.241Z,10.60
2023-05-10T06:20:16.954Z,13.80
2023-05-10T06:22:45.057Z,13.00
2023-05-10T06:25:12.984Z,14.50
2023-05-10T06:27:40.807Z,14.50
2023-05-10T06:30:13.411Z,9.00
2023-05-10T06:32:41.899Z,9.60
2023-05-10T06:35:10.285Z,10.50
2023-05-10T06:37:38.222Z,9.60
2023-05-10T06:40:07.983Z,12.10
2023-05-10T06:42:35.883Z,8.60
2023-05-10T06:45:03.972Z,11.20
2023-05-10T06:47:31.830Z,11.00
2023-05-10T06:49:59.660Z,7.30
2023-05-10T06:52:27.955Z,7.80
2023-05-10T06:54:55.739Z,10.00
2023-05-10T06:57:31.300Z,8.10
2023-05-10T07:00:00.449Z,9.30
2023-05-10T07:02:28.441Z,6.20
2023-05-10T07:04:58.002Z,9.90
2023-05-10T07:07:27.318Z,10.30
2023-05-10T07:09:55.169Z,8.60
2023-05-10T07:12:23.064Z,10.50
2023-05-10T07:14:50.976Z,8.50
2023-05-10T07:17:19.136Z,8.30
2023-05-10T07:19:47.210Z,10.60
2023-05-10T07:22:19.096Z,10.00
2023-05-10T07:24:50.353Z,6.20
2023-05-10T07:27:18.206Z,10.20
2023-05-10T07:29:46.020Z,6.80
2023-05-10T07:32:13.773Z,9.50
2023-05-10T07:34:41.680Z,7.70
2023-05-10T07:37:09.584Z,8.10
2023-05-10T07:39:37.379Z,7.10
2023-05-10T07:42:05.409Z,11.10
2023-05-10T07:44:33.166Z,7.20
2023-05-10T07:47:00.967Z,7.60
2023-05-10T07:49:28.807Z,9.50
2023-05-10T07:51:56.817Z,6.30
2023-05-10T07:54:24.779Z,8.00
2023-05-10T07:56:52.694Z,9.60
2023-05-10T07:59:20.943Z,7.10
2023-05-10T08:01:49.005Z,9.00
2023-05-10T08:04:17.156Z,6.30
2023-05-10T08:06:47.488Z,6.50
2023-05-10T08:09:15.519Z,6.30
2023-05-10T08:11:43.341Z,7.30
2023-05-10T08:14:11.450Z,6.90
2023-05-10T08:16:39.478Z,7.30
2023-05-10T08:19:07.593Z,9.10
2023-05-10T08:21:35.552Z,8.60
2023-05-10T08:24:03.632Z,8.10
2023-05-10T08:26:33.793Z,4.80
2023-05-10T08:29:01.643Z,4.60
2023-05-10T08:31:29.537Z,6.90
2023-05-10T08:33:57.311Z,6.70
2023-05-10T08:36:25.575Z,5.20
2023-05-10T08:38:54.475Z,8.80
2023-05-10T08:41:24.911Z,5.60
2023-05-10T08:43:56.151Z,5.50
2023-05-10T08:46:24.615Z,11.10
2023-05-10T08:48:53.253Z,16.00
2023-05-10T08:51:27.806Z,9.20
2023-05-10T08:53:55.955Z,11.60
2023-05-10T08:56:24.643Z,5.60
2023-05-10T08:58:52.701Z,4.60
2023-05-10T09:01:21.683Z,5.90
2023-05-10T09:03:49.885Z,5.90
2023-05-10T09:06:18.149Z,10.70
2023-05-10T09:08:46.230Z,6.10
2023-05-10T09:11:14.397Z,6.80
2023-05-10T09:13:45.383Z,3.10
2023-05-10T09:16:21.221Z,6.10
2023-05-10T09:18:50.628Z,9.50
2023-05-10T09:21:20.847Z,6.60
2023-05-10T09:23:51.018Z,6.20
2023-05-10T09:26:23.395Z,5.60
2023-05-10T09:31:52.173Z,8.30
2023-05-10T09:34:22.425Z,8.10
2023-05-10T09:37:02.074Z,6.30
2023-05-10T09:39:37.259Z,5.40
2023-05-10T09:42:10.728Z,6.00
2023-05-10T09:44:39.448Z,8.20
2023-05-10T09:47:07.378Z,7.70
2023-05-10T09:49:36.023Z,11.30
2023-05-10T09:52:07.264Z,7.50
2023-05-10T09:54:35.904Z,4.60
2023-05-10T09:57:04.186Z,4.90
2023-05-10T09:59:36.578Z,6.10
2023-05-10T10:02:04.579Z,6.60
2023-05-10T10:04:32.903Z,5.80
2023-05-10T10:07:05.552Z,4.90
2023-05-10T10:09:34.968Z,5.00
2023-05-10T10:12:07.169Z,12.20
2023-05-10T10:17:07.315Z,10.30
2023-05-10T10:19:37.650Z,8.00
2023-05-10T10:22:07.041Z,8.70
2023-05-10T10:24:35.434Z,6.80
2023-05-10T10:27:35.771Z,6.50
2023-05-10T10:30:18.023Z,9.70
2023-05-10T10:33:10.378Z,3.70
2023-05-10T10:35:46.909Z,6.50
2023-05-10T10:38:15.031Z,6.00
2023-05-10T10:40:43.437Z,5.10
2023-05-10T10:43:30.500Z,11.60
2023-05-10T10:46:14.835Z,3.80
2023-05-10T10:48:49.364Z,5.40
2023-05-10T10:51:17.223Z,6.80
2023-05-10T10:53:45.440Z,6.60
2023-05-10T10:56:16.210Z,5.70
2023-05-10T10:58:52.349Z,6.00
2023-05-10T11:01:21.525Z,6.10
2023-05-10T11:04:10.137Z,4.10
2023-05-10T11:06:38.129Z,4.90
2023-05-10T11:09:12.595Z,9.10
2023-05-10T11:11:56.440Z,4.40
2023-05-10T11:14:24.447Z,6.80
2023-05-10T11:16:52.785Z,4.60
2023-05-10T11:19:20.847Z,5.70
2023-05-10T11:21:52.102Z,7.00
2023-05-10T11:24:23.033Z,6.00
2023-05-10T11:26:54.501Z,4.10
2023-05-10T11:29:22.442Z,12.70
2023-05-10T11:31:52.635Z,7.10
2023-05-10T11:34:35.891Z,7.00
2023-05-10T11:37:06.965Z,4.60
2023-05-10T11:39:35.043Z,9.00
2023-05-10T11:42:02.932Z,5.30
2023-05-10T11:44:34.347Z,6.60
2023-05-10T11:47:03.286Z,13.10
2023-05-10T11:49:31.238Z,6.30
2023-05-10T11:52:07.670Z,5.40
2023-05-10T11:54:38.528Z,6.60
2023-05-10T11:57:06.394Z,8.20
2023-05-10T11:59:34.379Z,17.90
2023-05-10T12:02:02.392Z,6.90
2023-05-10T12:04:31.261Z,7.20
2023-05-10T12:06:59.310Z,6.10
2023-05-10T12:12:01.893Z,9.00
2023-05-10T12:14:34.226Z,6.10
2023-05-10T12:17:02.323Z,5.10
2023-05-10T12:19:38.861Z,4.80
2023-05-10T12:22:07.365Z,7.60
2023-05-10T12:24:39.338Z,6.50
2023-05-10T12:29:51.062Z,3.70
2023-05-10T12:32:19.065Z,5.70
2023-05-10T12:34:47.878Z,7.50
2023-05-10T12:37:15.921Z,5.40
2023-05-10T12:39:45.754Z,3.90
2023-05-10T12:42:13.728Z,9.20
2023-05-10T12:44:41.582Z,10.10
2023-05-10T12:47:09.598Z,5.30
2023-05-10T12:49:37.434Z,5.10
2023-05-10T12:52:05.480Z,11.50
2023-05-10T12:54:33.732Z,6.70
2023-05-10T12:57:01.591Z,6.20
2023-05-10T12:59:29.482Z,8.30
2023-05-10T13:01:58.788Z,5.30
2023-05-10T13:04:26.859Z,3.70
2023-05-10T13:06:59.500Z,3.60
2023-05-10T13:09:30.498Z,5.40
2023-05-10T13:11:58.506Z,7.60
2023-05-10T13:14:26.741Z,5.50
2023-05-10T13:16:57.704Z,4.20
2023-05-10T13:19:27.434Z,4.20
2023-05-10T13:21:55.403Z,4.60
2023-05-10T13:24:23.367Z,4.40
2023-05-10T13:26:51.491Z,9.70
2023-05-10T13:29:20.310Z,3.40
2023-05-10T13:31:48.313Z,4.50
2023-05-10T13:34:16.187Z,7.10
2023-05-10T13:36:44.058Z,6.20
2023-05-10T13:39:11.929Z,4.90
2023-05-10T13:41:39.993Z,5.80
2023-05-10T13:44:08.267Z,5.10
2023-05-10T13:46:36.330Z,9.50
2023-05-10T13:49:04.235Z,9.70
2023-05-10T13:51:34.908Z,9.30
2023-05-10T13:54:04.098Z,6.60
2023-05-10T13:56:32.082Z,6.50
2023-05-10T13:59:00.877Z,7.10
2023-05-10T14:01:28.873Z,5.40
2023-05-10T14:03:57.083Z,5.60
2023-05-10T14:06:25.072Z,7.60
2023-05-10T14:08:53.058Z,8.90
2023-05-10T14:11:22.717Z,8.00
2023-05-10T14:13:52.379Z,5.40
2023-05-10T14:16:21.198Z,7.10
2023-05-10T14:18:49.199Z,6.20
2023-05-10T14:21:16.996Z,9.10
2023-05-10T14:23:44.790Z,4.40
2023-05-10T14:26:13.108Z,4.70
2023-05-10T14:28:41.128Z,8.00
2023-05-10T14:31:09.089Z,4.60
2023-05-10T14:33:36.947Z,4.20
2023-05-10T14:36:05.134Z,4.40
2023-05-10T14:38:32.988Z,6.90
2023-05-10T14:41:00.840Z,4.70
2023-05-10T14:43:29.151Z,7.60
2023-05-10T14:45:57.016Z,6.30
2023-05-10T14:48:25.055Z,9.10
2023-05-10T14:50:53.624Z,6.90
2023-05-10T14:53:21.604Z,6.40
2023-05-10T14:55:49.406Z,6.70
2023-05-10T14:58:17.572Z,4.20
2023-05-10T15:00:45.427Z,6.50
2023-05-10T15:03:13.758Z,8.80
2023-05-10T15:05:42.196Z,8.20
2023-05-10T15:08:10.385Z,6.50
2023-05-10T15:10:38.225Z,8.50
2023-05-10T15:13:06.223Z,5.40
2023-05-10T15:15:34.337Z,5.50
2023-05-10T15:18:02.553Z,6.30
2023-05-10T15:20:30.412Z,4.50
2023-05-10T15:22:58.221Z,4.00
2023-05-10T15:25:26.203Z,5.00
2023-05-10T15:27:54.004Z,5.30
2023-05-10T15:30:22.376Z,6.30
2023-05-10T15:32:50.317Z,6.40
2023-05-10T15:35:18.661Z,4.80
2023-05-10T15:37:49.599Z,7.90
2023-05-10T15:40:17.803Z,6.80
2023-05-10T15:42:45.684Z,9.10
2023-05-10T15:45:13.900Z,9.40
2023-05-10T15:47:41.775Z,3.90
2023-05-10T15:50:10.683Z,6.40
2023-05-10T15:52:38.463Z,6.90
2023-05-10T15:55:12.857Z,7.00
2023-05-10T15:57:42.741Z,6.80
2023-05-10T16:00:12.507Z,5.40
2023-05-10T16:02:41.435Z,6.70
2023-05-10T16:05:10.197Z,7.00
2023-05-10T16:07:38.084Z,8.10
2023-05-10T16:10:07.047Z,6.40
2023-05-10T16:12:34.811Z,4.80
2023-05-10T16:15:02.675Z,5.10
2023-05-10T16:17:30.462Z,10.90
2023-05-10T16:19:58.369Z,4.40
2023-05-10T16:22:29.652Z,5.00
2023-05-10T16:24:57.935Z,7.50
2023-05-10T16:27:28.632Z,12.50
2023-05-10T16:29:56.389Z,5.80
2023-05-10T16:32:24.332Z,7.00
2023-05-10T16:34:53.490Z,5.70
2023-05-10T16:37:21.290Z,4.70
2023-05-10T16:39:49.287Z,5.30
2023-05-10T16:42:17.558Z,9.00
2023-05-10T16:44:45.542Z,7.20
2023-05-10T16:47:14.398Z,6.80
2023-05-10T16:49:42.238Z,6.50
2023-05-10T16:52:10.231Z,5.90
2023-05-10T16:54:39.326Z,4.50
2023-05-10T16:57:08.576Z,8.10
2023-05-10T16:59:36.418Z,7.20
2023-05-10T17:02:04.347Z,8.00
2023-05-10T17:04:32.507Z,6.60
2023-05-10T17:07:00.423Z,9.10
2023-05-10T17:09:28.215Z,5.90
2023-05-10T17:11:56.194Z,7.90
2023-05-10T17:14:24.030Z,6.70
2023-05-10T17:16:53.213Z,7.20
2023-05-10T17:19:23.036Z,5.00
2023-05-10T17:21:52.057Z,6.90
2023-05-10T17:24:20.012Z,5.80
2023-05-10T17:26:47.760Z,7.40
2023-05-10T17:29:16.287Z,6.80
2023-05-10T17:31:44.202Z,8.50
2023-05-10T17:34:11.978Z,7.90
2023-05-10T17:36:39.971Z,9.20
2023-05-10T17:39:07.739Z,10.60
2023-05-10T17:41:35.564Z,7.10
2023-05-10T17:44:03.290Z,10.70
2023-05-10T17:46:31.193Z,10.30
2023-05-10T17:48:59.145Z,11.30
2023-05-10T17:51:27.040Z,8.10
2023-05-10T17:53:54.912Z,9.30
2023-05-10T17:56:22.718Z,10.70
2023-05-10T17:58:51.134Z,6.40
2023-05-10T18:01:19.019Z,9.50
2023-05-10T18:03:50.158Z,7.10
2023-05-10T18:06:18.109Z,9.10
2023-05-10T18:08:45.981Z,7.10
2023-05-10T18:11:13.903Z,9.60
2023-05-10T18:13:41.906Z,8.20
2023-05-10T18:16:12.694Z,8.20
2023-05-10T18:18:40.755Z,6.80
2023-05-10T18:21:08.674Z,8.10
2023-05-10T18:23:36.423Z,9.00
2023-05-10T18:26:04.193Z,8.30
2023-05-10T18:28:32.013Z,10.20
2023-05-10T18:30:59.795Z,14.30
2023-05-10T18:33:27.821Z,18.60
2023-05-10T18:35:55.705Z,17.90
2023-05-10T18:38:23.570Z,15.00
2023-05-10T18:40:51.639Z,18.00
2023-05-10T18:43:19.428Z,15.60
2023-05-10T18:45:47.348Z,14.40
2023-05-10T18:48:15.237Z,12.50
2023-05-10T18:50:43.093Z,18.00
2023-05-10T18:53:10.933Z,11.90
2023-05-10T18:55:38.687Z,11.90
2023-05-10T18:58:06.525Z,17.90
2023-05-10T19:00:34.241Z,17.00
2023-05-10T19:03:02.124Z,19.80
2023-05-10T19:05:31.581Z,12.50
2023-05-10T19:07:59.426Z,14.00
2023-05-10T19:10:27.244Z,20.90
2023-05-10T19:12:55.091Z,12.10
2023-05-10T19:15:23.203Z,9.90
2023-05-10T19:17:51.685Z,7.90
2023-05-10T19:20:19.785Z,9.60
2023-05-10T19:23:02.110Z,7.30
2023-05-10T19:25:35.944Z,10.00
2023-05-10T19:28:03.919Z,10.00
2023-05-10T19:30:32.402Z,10.30
2023-05-10T19:33:05.411Z,8.60
2023-05-10T19:35:33.533Z,6.30
2023-05-10T19:38:01.412Z,6.90
2023-05-10T19:40:29.362Z,12.10
2023-05-10T19:42:57.362Z,9.80
2023-05-10T19:45:29.634Z,7.80
2023-05-10T19:47:57.730Z,11.40
2023-05-10T19:50:26.169Z,7.60
2023-05-10T19:52:54.021Z,6.70
2023-05-10T19:55:32.143Z,9.00
2023-05-10T19:58:02.834Z,12.30
2023-05-10T20:00:31.676Z,8.60
2023-05-10T20:02:59.595Z,6.20
2023-05-10T20:05:27.808Z,7.90
2023-05-10T20:07:55.619Z,8.70
2023-05-10T20:10:24.756Z,9.50
2023-05-10T20:12:54.015Z,9.10
2023-05-10T20:15:23.577Z,8.40
2023-05-10T20:17:53.299Z,7.90
2023-05-10T20:20:22.225Z,8.20
2023-05-10T20:22:50.411Z,11.60
2023-05-10T20:25:19.085Z,10.00
2023-05-10T20:27:47.062Z,14.00
2023-05-10T20:30:15.118Z,7.50
2023-05-10T20:32:43.810Z,9.90
2023-05-10T20:35:11.948Z,7.60
2023-05-10T20:37:39.687Z,12.90
2023-05-10T20:40:08.585Z,9.50
2023-05-10T20:42:36.383Z,9.60
2023-05-10T20:45:04.677Z,13.10
2023-05-10T20:47:32.622Z,9.20
2023-05-10T20:50:00.585Z,9.60
2023-05-10T20:52:28.397Z,8.50
2023-05-10T20:54:56.158Z,12.80
2023-05-10T20:57:23.888Z,8.60
2023-05-10T20:59:51.977Z,8.80
2023-05-10T21:02:19.847Z,9.10
2023-05-10T21:04:47.675Z,10.10
2023-05-10T21:07:16.350Z,12.30
2023-05-10T21:09:44.287Z,15.00
2023-05-10T21:12:13.360Z,18.90
2023-05-10T21:14:42.337Z,18.80
2023-05-10T21:17:10.368Z,34.70
2023-05-10T21:19:38.052Z,23.60
2023-05-10T21:22:06.371Z,13.10
2023-05-10T21:24:35.076Z,11.60
2023-05-10T21:27:03.100Z,14.10
2023-05-10T21:29:30.878Z,10.50
2023-05-10T21:31:58.719Z,11.50
2023-05-10T21:34:26.854Z,12.40
2023-05-10T21:36:54.865Z,10.80
2023-05-10T21:39:22.586Z,11.50
2023-05-10T21:41:50.546Z,10.70
2023-05-10T21:44:18.598Z,7.80
2023-05-10T21:46:46.452Z,10.90
2023-05-10T21:49:14.328Z,8.70
2023-05-10T21:51:42.149Z,11.70
2023-05-10T21:54:09.870Z,9.40
2023-05-10T21:56:37.706Z,8.30
2023-05-10T21:59:05.810Z,7.40
2023-05-10T22:01:33.834Z,11.10
2023-05-10T22:04:01.775Z,9.50
2023-05-10T22:06:29.650Z,11.70
2023-05-10T22:08:57.476Z,10.00
2023-05-10T22:11:26.032Z,9.90
2023-05-10T22:13:53.847Z,11.80
2023-05-10T22:16:21.822Z,8.60
2023-05-10T22:18:49.640Z,11.50
2023-05-10T22:21:17.567Z,11.30
2023-05-10T22:23:45.316Z,11.40
2023-05-10T22:26:13.123Z,10.20
2023-05-10T22:28:41.557Z,7.60
2023-05-10T22:31:11.519Z,8.50
2023-05-10T22:33:39.514Z,8.90
2023-05-10T22:36:08.335Z,12.00
2023-05-10T22:38:36.232Z,11.80
2023-05-10T22:41:04.039Z,10.50
2023-05-10T22:43:31.858Z,12.00
2023-05-10T22:45:59.718Z,7.70
2023-05-10T22:48:29.124Z,9.90
2023-05-10T22:50:57.346Z,7.60
2023-05-10T22:53:25.280Z,12.00
2023-05-10T22:55:53.116Z,13.40
2023-05-10T22:58:21.111Z,9.10
2023-05-10T23:00:48.917Z,8.60
2023-05-10T23:03:16.712Z,8.20
2023-05-10T23:05:44.789Z,7.70
2023-05-10T23:08:12.900Z,8.30
2023-05-10T23:10:40.636Z,11.20
2023-05-10T23:13:08.522Z,10.60
2023-05-10T23:15:36.587Z,10.00
2023-05-10T23:18:05.945Z,8.60
2023-05-10T23:20:33.932Z,8.10
2023-05-10T23:23:01.999Z,11.50
2023-05-10T23:25:29.922Z,12.60
2023-05-10T23:27:57.714Z,14.40
2023-05-10T23:30:25.472Z,11.20
2023-05-10T23:32:53.291Z,11.80
2023-05-10T23:35:21.074Z,11.30
2023-05-10T23:37:48.916Z,10.60
2023-05-10T23:40:17.296Z,9.80
2023-05-10T23:42:45.356Z,9.40
2023-05-10T23:45:13.176Z,13.60
2023-05-10T23:47:41.512Z,12.20
2023-05-10T23:50:10.220Z,12.10
2023-05-10T23:52:38.033Z,16.60
2023-05-10T23:55:06.521Z,12.20
2023-05-10T23:57:34.310Z,9.70
